Aeroporto :
LOGIN :

Iscrizione | Disclaimer

   EN    FR    IT 

 










Sommario :    VFR   VFR Marginale   IFR   IFR Intensivo   IFR Molto Intensivo
Visibilità : 
Base nubi : 
>= 8 km
>= 3000ft
5 / 8 km
1000 / 3000 ft
1500m / 5 km
500 / 1000 ft
800 / 1500m
200 / 500 ft
< 800m
< 200 ft
Simboli :   Temporali  Nebbia  Neve Forte  Precipitazioni Forti  Vento > 20 kt
SIGMETs :   Varie  Temporali  Ghiacco  Turbolenza  Onda orograficha  Ceneri Vulcaniche






- Altitudine del aeroporto : 1470 ft


LSMD - Dubendorf Military

ULTIMO METAR :
  • 171220Z AUTO 27003KT 240V300 4700NDV -RA BR FEW003 SCT005 04/04 Q1003 RMK

METARs OBSOLETI :
  • 171150Z AUTO 28005KT 3400NDV -RA BR SCT004 04/03 Q1003 RMK
  • 171120Z AUTO 29005KT 2500NDV -SHRA BR FEW005 SCT007 BKN013 04/03 Q1003 RMK
  • 171050Z AUTO 30003KT 270V360 8000NDV -SHRA FEW006 SCT008 BKN010 04/03 Q1003 RMK
  • 171020Z AUTO VRB02KT 6000NDV -RA FEW007 SCT013 04/03 Q1004 RMK
  • 170950Z AUTO 00000KT 4500NDV -RA BR FEW005 SCT021 04/03 Q1004 RMK

Previsioni scadute.



MetMap, La meteo Aeronautica in un colpo d'occhio ! - Copyright ORBIFLY Dicembre 2007 - Disclaimer

ORBIFLY MET'MAP TEAM :

Programmazione e sviluppo : Alexandra Zaïnal
Concezione e sviluppo : Baudouin d'Aumeries
Co-Programmazione e sviluppo : Marc-Olivier Méhu
Supporto tecnico e logistico : Manuel Goepfert
Aiuto per la traduzione : Arnaldo La Scala

Contatto : metmap@orbifly.com




FONTI E CREDITI :

   NOAA